Time;durP1;ratioP1;P1;durP2;ratioP2;P2;SDS_P1;SDS_P2;PMS_P1;PMS_P2;Temp;Humidity;BMP_temperature;BMP_pressure;BME280_temperature;BME280_humidity;BME280_pressure;Samples;Min_cycle;Max_cycle;Signal;HPM_P1;HPM_P2
2023/07/02 00:00:11;;;;;;;;;35.50;24.75;;;;;20.20;100.00;100977.13;5036665;28;46215;-75
2023/07/02 00:02:36;;;;;;;;;32.00;26.33;;;;;20.16;100.00;100976.31;5037104;28;45372;-75
2023/07/02 00:05:02;;;;;;;;;36.67;29.33;;;;;20.08;100.00;100967.59;5036620;28;45523;-75
2023/07/02 00:07:27;;;;;;;;;29.67;27.67;;;;;20.01;100.00;100966.00;5036676;28;45459;-75
2023/07/02 00:09:53;;;;;;;;;35.67;29.67;;;;;19.97;100.00;100975.91;5035989;28;46070;-75
2023/07/02 00:12:18;;;;;;;;;33.00;28.33;;;;;19.92;100.00;100974.25;5036691;28;45227;-75
2023/07/02 00:14:43;;;;;;;;;43.00;32.25;;;;;19.85;100.00;100971.75;5036042;28;55107;-75
2023/07/02 00:17:12;;;;;;;;;38.33;31.33;;;;;19.83;100.00;100967.34;5016873;28;45610;-75
2023/07/02 00:19:41;;;;;;;;;34.33;26.67;;;;;19.78;100.00;100969.25;5036366;28;46166;-75
2023/07/02 00:22:08;;;;;;;;;34.00;30.67;;;;;19.72;100.00;100962.25;5036728;28;45523;-75
2023/07/02 00:24:33;;;;;;;;;37.00;30.67;;;;;19.70;100.00;100971.25;5035822;28;47036;-75
2023/07/02 00:26:58;;;;;;;;;39.00;32.00;;;;;19.63;100.00;100975.88;5036843;28;45397;-75
2023/07/02 00:29:24;;;;;;;;;43.25;30.00;;;;;19.58;100.00;100967.91;5036375;28;49159;-75
2023/07/02 00:31:49;;;;;;;;;44.00;31.50;;;;;19.54;100.00;100965.34;5036473;28;45414;-75
2023/07/02 00:34:15;;;;;;;;;34.00;26.75;;;;;19.51;100.00;100968.09;5036437;28;45266;-75
2023/07/02 00:36:41;;;;;;;;;39.33;30.33;;;;;19.45;100.00;100962.91;5036480;28;46839;-75
2023/07/02 00:39:06;;;;;;;;;39.67;27.33;;;;;19.40;100.00;100957.66;5035823;28;47681;-75
2023/07/02 00:41:32;;;;;;;;;37.00;29.75;;;;;19.37;100.00;100960.38;5036585;28;45341;-75
2023/07/02 00:43:57;;;;;;;;;34.50;27.75;;;;;19.32;100.00;100954.25;5036437;28;45808;-75
2023/07/02 00:46:25;;;;;;;;;32.33;28.33;;;;;19.29;100.00;100957.91;5036184;28;45408;-75
2023/07/02 00:48:54;;;;;;;;;34.00;30.50;;;;;19.28;100.00;100956.13;5036014;28;47966;-74
2023/07/02 00:51:24;;;;;;;;;42.33;27.67;;;;;19.30;100.00;100966.81;5036075;28;45440;-75
2023/07/02 00:53:51;;;;;;;;;37.00;29.67;;;;;19.31;100.00;100972.13;5036468;28;45510;-75
2023/07/02 00:56:17;;;;;;;;;41.00;30.50;;;;;19.30;100.00;100961.44;5036055;28;45626;-75
2023/07/02 00:58:50;;;;;;;;;40.25;30.25;;;;;19.31;100.00;100963.19;5036128;28;47326;-75
2023/07/02 01:01:20;;;;;;;;;33.00;29.75;;;;;19.30;100.00;100967.69;5035429;28;45472;-75
2023/07/02 01:03:54;;;;;;;;;40.75;30.00;;;;;19.25;100.00;100966.91;5036094;28;45427;-75
2023/07/02 01:06:26;;;;;;;;;42.75;30.50;;;;;19.21;100.00;100970.56;5035994;28;45574;-75
2023/07/02 01:08:53;;;;;;;;;42.00;29.50;;;;;19.18;100.00;100977.78;5035549;28;46335;-76
2023/07/02 01:11:20;;;;;;;;;42.75;31.25;;;;;19.10;100.00;100975.28;5035780;28;45208;-75
2023/07/02 01:13:45;;;;;;;;;34.25;29.25;;;;;19.06;100.00;100976.25;5036141;28;45345;-75
2023/07/02 01:16:11;;;;;;;;;37.00;32.00;;;;;18.98;100.00;100971.06;5035515;28;45644;-75
2023/07/02 01:18:38;;;;;;;;;38.50;31.25;;;;;18.93;100.00;100974.75;5017185;28;61304;-75
2023/07/02 01:21:06;;;;;;;;;37.25;29.75;;;;;18.87;100.00;100983.81;5039274;28;45194;-75
2023/07/02 01:23:33;;;;;;;;;34.75;30.25;;;;;18.87;100.00;100988.28;5039553;28;45450;-75
2023/07/02 01:25:59;;;;;;;;;41.50;32.00;;;;;18.80;100.00;100988.41;5039657;28;45491;-75
2023/07/02 01:28:25;;;;;;;;;39.00;28.50;;;;;18.76;100.00;100986.69;5020906;28;47185;-75
2023/07/02 01:30:50;;;;;;;;;34.00;30.75;;;;;18.74;100.00;100982.28;5039619;28;45467;-75
2023/07/02 01:33:16;;;;;;;;;37.50;30.00;;;;;18.72;100.00;100981.44;5038936;28;48182;-75
2023/07/02 01:35:41;;;;;;;;;39.25;29.25;;;;;18.71;100.00;100985.91;5039559;28;45281;-75
2023/07/02 01:38:06;;;;;;;;;33.50;28.50;;;;;18.72;100.00;100987.66;5038965;28;46521;-76
2023/07/02 01:40:32;;;;;;;;;35.00;29.00;;;;;18.74;100.00;100987.63;5039223;28;45323;-75
2023/07/02 01:42:57;;;;;;;;;28.75;25.75;;;;;18.74;100.00;100985.81;5021334;28;50379;-75
2023/07/02 01:45:22;;;;;;;;;32.25;25.25;;;;;18.71;100.00;100980.56;5039022;28;45615;-75
2023/07/02 01:47:48;;;;;;;;;32.25;27.50;;;;;18.70;100.00;100989.50;5039197;28;46480;-75
2023/07/02 01:50:13;;;;;;;;;35.00;30.00;;;;;18.67;100.00;100980.59;5038634;28;45371;-75
2023/07/02 01:52:39;;;;;;;;;38.25;30.50;;;;;18.68;100.00;100988.63;5039431;28;45368;-75
2023/07/02 01:55:04;;;;;;;;;34.50;30.00;;;;;18.63;100.00;100986.91;5039001;28;45576;-75
2023/07/02 01:57:30;;;;;;;;;37.75;24.00;;;;;18.58;100.00;100987.00;5038397;28;45785;-75
2023/07/02 01:59:56;;;;;;;;;37.50;27.00;;;;;18.55;100.00;100981.75;5039115;28;45435;-76
2023/07/02 02:02:21;;;;;;;;;36.00;28.00;;;;;18.55;100.00;100989.75;5038703;28;45427;-76
2023/07/02 02:04:46;;;;;;;;;31.25;21.00;;;;;18.52;100.00;100995.16;5039155;28;45312;-75
2023/07/02 02:07:12;;;;;;;;;37.00;25.25;;;;;18.55;100.00;100998.66;5038157;28;48657;-75
2023/07/02 02:09:37;;;;;;;;;29.00;27.25;;;;;18.57;100.00;100995.94;5038675;28;48275;-75
2023/07/02 02:12:03;;;;;;;;;31.00;23.00;;;;;18.58;100.00;100990.56;5038802;28;45586;-75
2023/07/02 02:14:28;;;;;;;;;37.25;27.00;;;;;18.57;100.00;100990.59;5020844;28;45935;-75
2023/07/02 02:16:54;;;;;;;;;28.75;24.00;;;;;18.57;100.00;100998.63;5037971;28;69153;-75
2023/07/02 02:19:19;;;;;;;;;28.33;22.67;;;;;18.57;100.00;100996.81;5038697;28;45285;-75
2023/07/02 02:21:44;;;;;;;;;27.00;23.67;;;;;18.58;100.00;100998.59;5040310;28;57034;-75
2023/07/02 02:24:10;;;;;;;;;35.75;28.75;;;;;18.58;100.00;100998.59;5039628;28;45565;-75
2023/07/02 02:26:36;;;;;;;;;26.33;22.00;;;;;18.55;100.00;100997.78;5037874;28;46332;-75
2023/07/02 02:29:01;;;;;;;;;31.75;24.75;;;;;18.53;100.00;101002.25;5038380;28;45391;-75
2023/07/02 02:31:28;;;;;;;;;35.00;24.75;;;;;18.52;100.00;100997.81;5037825;28;45236;-76
2023/07/02 02:33:53;;;;;;;;;29.67;25.00;;;;;18.46;100.00;101001.50;5038187;28;45341;-75
2023/07/02 02:36:19;;;;;;;;;37.25;24.50;;;;;18.45;100.00;101005.09;5038353;28;45980;-75
2023/07/02 02:38:44;;;;;;;;;31.67;25.00;;;;;18.45;100.00;101007.75;5037254;28;52199;-75
2023/07/02 02:41:09;;;;;;;;;38.25;27.25;;;;;18.48;100.00;100993.44;5038824;28;45333;-75
2023/07/02 02:43:35;;;;;;;;;42.33;29.00;;;;;18.47;100.00;101005.94;5037096;28;59032;-75
2023/07/02 02:46:00;;;;;;;;;29.00;23.67;;;;;18.42;100.00;100997.13;5037944;28;45684;-76
2023/07/02 02:48:25;;;;;;;;;24.00;19.33;;;;;18.38;100.00;100997.22;5037332;28;66010;-76
2023/07/02 02:50:51;;;;;;;;;33.00;24.00;;;;;18.37;100.00;101008.81;5038127;28;46719;-74
2023/07/02 02:53:16;;;;;;;;;34.75;23.00;;;;;18.33;100.00;100998.19;5038057;28;45507;-76
2023/07/02 02:55:41;;;;;;;;;28.00;22.67;;;;;18.33;100.00;101008.88;5037663;28;47072;-75
2023/07/02 02:58:07;;;;;;;;;29.33;25.00;;;;;18.28;100.00;101010.75;5037144;28;65789;-75
2023/07/02 03:00:32;;;;;;;;;36.33;27.00;;;;;18.27;100.00;101013.47;5037330;28;60312;-76
2023/07/02 03:02:58;;;;;;;;;39.00;30.00;;;;;18.21;100.00;101008.19;5037254;28;60612;-75
2023/07/02 03:05:24;;;;;;;;;39.75;28.50;;;;;18.15;100.00;101008.31;5037819;28;46820;-75
2023/07/02 03:07:50;;;;;;;;;50.75;39.25;;;;;18.11;100.00;101020.88;5037610;28;45201;-75
2023/07/02 03:10:16;;;;;;;;;51.50;39.25;;;;;18.13;100.00;101020.81;5038039;28;45352;-75
2023/07/02 03:12:41;;;;;;;;;35.25;25.50;;;;;18.12;100.00;101019.06;5038898;28;45677;-75
2023/07/02 03:15:08;;;;;;;;;35.00;29.00;;;;;18.10;100.00;101019.06;5039340;28;71092;-75
2023/07/02 03:17:33;;;;;;;;;33.50;27.00;;;;;18.08;100.00;101012.00;5037804;28;45384;-75
2023/07/02 03:19:58;;;;;;;;;31.50;26.00;;;;;18.04;100.00;101012.03;5038682;28;45703;-75
2023/07/02 03:22:24;;;;;;;;;26.50;20.00;;;;;18.04;100.00;101016.50;5037076;28;56858;-75
2023/07/02 03:24:49;;;;;;;;;33.00;24.33;;;;;18.06;100.00;101022.72;5036383;28;68892;-75
2023/07/02 03:27:14;;;;;;;;;27.25;22.00;;;;;18.03;100.00;101020.09;5037415;28;48317;-75
2023/07/02 03:29:40;;;;;;;;;40.67;24.33;;;;;18.01;100.00;101024.59;5037461;28;45303;-75
2023/07/02 03:32:05;;;;;;;;;29.00;24.75;;;;;18.00;100.00;101021.03;5036420;28;64387;-76
2023/07/02 03:34:31;;;;;;;;;29.50;26.25;;;;;17.97;100.00;101029.09;5037586;28;46355;-75
2023/07/02 03:36:56;;;;;;;;;28.50;23.00;;;;;17.97;100.00;101022.88;5036252;28;58839;-75
2023/07/02 03:39:21;;;;;;;;;32.25;23.75;;;;;18.01;100.00;101032.59;5036709;28;62801;-75
2023/07/02 03:41:47;;;;;;;;;31.75;25.00;;;;;18.03;100.00;101036.13;5036634;28;62962;-75
2023/07/02 03:44:12;;;;;;;;;22.25;21.25;;;;;18.05;100.00;101044.97;5019415;28;47166;-75
2023/07/02 03:46:38;;;;;;;;;28.33;22.67;;;;;18.10;100.00;101042.25;5036306;28;69331;-75
2023/07/02 03:49:03;;;;;;;;;30.67;23.33;;;;;18.05;100.00;101034.28;5036653;28;62320;-75
2023/07/02 03:51:29;;;;;;;;;34.67;24.67;;;;;18.09;100.00;101041.38;5037338;28;45483;-75
2023/07/02 03:53:55;;;;;;;;;30.75;23.00;;;;;18.09;100.00;101048.50;5037245;28;46791;-75
2023/07/02 03:56:20;;;;;;;;;35.25;27.50;;;;;18.06;100.00;101052.13;5035559;28;64669;-75
2023/07/02 03:58:45;;;;;;;;;29.67;24.00;;;;;18.06;100.00;101060.13;5037254;28;45661;-76
2023/07/02 04:01:11;;;;;;;;;26.50;21.50;;;;;18.11;100.00;101052.03;5035321;28;45477;-75
2023/07/02 04:03:36;;;;;;;;;30.67;23.00;;;;;18.13;100.00;101064.47;5035653;28;68173;-75
2023/07/02 04:06:01;;;;;;;;;36.33;27.00;;;;;18.15;100.00;101053.75;5036643;28;45287;-76
2023/07/02 04:08:29;;;;;;;;;24.67;18.67;;;;;18.16;100.00;101061.72;5037265;28;46742;-75
2023/07/02 04:10:55;;;;;;;;;31.00;21.00;;;;;18.11;100.00;101052.94;5036966;28;45698;-75
2023/07/02 04:13:20;;;;;;;;;28.67;20.67;;;;;18.11;100.00;101058.28;5036413;28;48640;-75
2023/07/02 04:15:45;;;;;;;;;24.67;22.00;;;;;18.10;100.00;101060.94;5035783;28;67532;-75
2023/07/02 04:18:11;;;;;;;;;28.67;24.00;;;;;18.04;100.00;101062.81;5036237;28;63569;-75
2023/07/02 04:20:38;;;;;;;;;25.00;21.00;;;;;18.02;100.00;101058.41;5035526;28;45451;-75
2023/07/02 04:23:04;;;;;;;;;25.67;22.00;;;;;18.04;100.00;101059.25;5035933;28;46662;-75
2023/07/02 04:25:29;;;;;;;;;31.50;26.50;;;;;18.04;100.00;101062.81;5036425;28;45357;-75
2023/07/02 04:27:56;;;;;;;;;21.75;20.50;;;;;18.09;100.00;101062.75;5036205;28;45433;-75
2023/07/02 04:30:21;;;;;;;;;32.00;24.75;;;;;18.10;100.00;101069.84;5018481;28;45659;-75
2023/07/02 04:32:47;;;;;;;;;23.33;19.00;;;;;18.13;100.00;101074.28;5035692;28;46272;-75
2023/07/02 04:35:12;;;;;;;;;20.33;19.00;;;;;18.14;100.00;101073.38;5035705;28;66004;-75
2023/07/02 04:37:37;;;;;;;;;23.00;18.33;;;;;18.09;100.00;101065.41;5035878;28;63811;-75
2023/07/02 04:40:09;;;;;;;;;28.33;18.67;;;;;18.10;100.00;101077.88;5035700;28;45547;-75
2023/07/02 04:42:37;;;;;;;;;33.67;24.33;;;;;18.05;100.00;101077.06;5036373;28;46157;-76
2023/07/02 04:45:03;;;;;;;;;27.67;22.33;;;;;18.05;100.00;101079.72;5035662;28;45194;-75
2023/07/02 04:47:29;;;;;;;;;27.67;22.67;;;;;18.01;100.00;101092.28;5036187;28;45817;-75
2023/07/02 04:49:55;;;;;;;;;28.25;22.25;;;;;17.99;100.00;101087.84;5036462;28;45478;-75
2023/07/02 04:52:20;;;;;;;;;23.67;21.33;;;;;17.95;100.00;101083.44;5035063;28;71646;-76
2023/07/02 04:54:45;;;;;;;;;30.33;20.67;;;;;17.94;100.00;101082.56;5034822;28;69279;-75
2023/07/02 04:57:11;;;;;;;;;26.33;20.00;;;;;17.94;100.00;101085.25;5036108;28;45237;-75
2023/07/02 04:59:36;;;;;;;;;31.33;21.00;;;;;17.97;100.00;101078.97;5035737;28;45456;-75
2023/07/02 05:02:02;;;;;;;;;25.67;23.33;;;;;18.01;100.00;101080.72;5036148;28;46620;-75
2023/07/02 05:04:27;;;;;;;;;24.67;18.67;;;;;18.07;100.00;101080.59;5035350;28;45230;-76
2023/07/02 05:06:53;;;;;;;;;22.33;16.67;;;;;18.15;100.00;101080.47;5036245;28;45533;-75
2023/07/02 05:09:18;;;;;;;;;24.33;19.00;;;;;18.22;100.00;101071.47;5034825;28;65432;-75
2023/07/02 05:11:43;;;;;;;;;29.00;23.33;;;;;18.31;100.00;101079.31;5015379;22;46553;-76
2023/07/02 05:14:09;;;;;;;;;27.33;17.67;;;;;18.37;100.00;101081.88;5034881;28;66741;-75
2023/07/02 05:16:34;;;;;;;;;22.00;20.00;;;;;18.42;100.00;101085.34;5034493;28;61927;-75
2023/07/02 05:18:59;;;;;;;;;18.00;9.33;;;;;18.40;100.00;101075.59;5035138;28;63117;-76
2023/07/02 05:21:25;;;;;;;;;23.00;21.67;;;;;18.42;100.00;101082.66;5033652;28;67756;-76
2023/07/02 05:23:50;;;;;;;;;24.67;21.00;;;;;18.42;100.00;101087.13;5034861;28;69200;-76
2023/07/02 05:26:15;;;;;;;;;22.00;20.00;;;;;18.42;100.00;101082.66;5034052;28;62836;-76
2023/07/02 05:28:41;;;;;;;;;29.67;22.00;;;;;18.44;100.00;101085.34;5035413;28;45276;-75
2023/07/02 05:31:06;;;;;;;;;26.33;18.00;;;;;18.46;100.00;101089.75;5034447;28;67722;-76
2023/07/02 05:33:33;;;;;;;;;26.67;22.33;;;;;18.46;100.00;101089.75;5034799;28;65714;-76
2023/07/02 05:35:58;;;;;;;;;26.33;22.00;;;;;18.48;100.00;101089.69;5034937;28;45209;-75
2023/07/02 05:38:24;;;;;;;;;17.33;14.67;;;;;18.49;100.00;101086.16;5027455;28;45269;-76
2023/07/02 05:40:49;;;;;;;;;24.33;20.67;;;;;18.50;100.00;101095.94;5034712;28;46502;-76
2023/07/02 05:43:15;;;;;;;;;25.00;19.00;;;;;18.52;100.00;101091.41;5034912;28;45462;-75
2023/07/02 05:45:40;;;;;;;;;25.00;16.67;;;;;18.52;100.00;101094.09;5036183;28;45392;-77
2023/07/02 05:48:05;;;;;;;;;16.33;13.33;;;;;18.54;100.00;101100.31;5034874;28;45645;-76
2023/07/02 05:50:31;;;;;;;;;27.00;20.00;;;;;18.59;100.00;101103.78;5034866;28;59443;-75
2023/07/02 05:52:56;;;;;;;;;23.67;19.67;;;;;18.65;100.00;101110.81;5033934;28;55903;-76
2023/07/02 05:55:21;;;;;;;;;22.67;21.33;;;;;18.69;100.00;101104.53;5034640;28;64875;-76
2023/07/02 05:57:47;;;;;;;;;33.67;19.33;;;;;18.72;100.00;101109.84;5035328;28;45563;-76
2023/07/02 06:00:12;;;;;;;;;23.00;16.33;;;;;18.73;100.00;101101.78;5034455;28;68427;-76
2023/07/02 06:02:38;;;;;;;;;21.33;19.67;;;;;18.78;100.00;101091.00;5034452;28;45494;-75
2023/07/02 06:05:04;;;;;;;;;28.00;22.33;;;;;18.88;100.00;101105.06;5034623;28;60916;-76
2023/07/02 06:07:29;;;;;;;;;22.33;21.00;;;;;18.93;100.00;101104.06;5037030;28;45458;-75
2023/07/02 06:09:54;;;;;;;;;31.33;21.33;;;;;19.01;100.00;101109.28;5037069;28;46573;-76
2023/07/02 06:12:21;;;;;;;;;27.33;19.00;;;;;19.02;100.00;101106.59;5037334;28;66173;-76
2023/07/02 06:14:46;;;;;;;;;25.33;20.00;;;;;19.04;100.00;101110.09;5038436;28;45437;-75
2023/07/02 06:17:12;;;;;;;;;22.00;19.00;;;;;19.05;100.00;101119.88;5038792;28;45627;-75
2023/07/02 06:19:38;;;;;;;;;23.00;18.33;;;;;19.05;100.00;101116.34;5037264;28;46624;-75
2023/07/02 06:22:03;;;;;;;;;27.67;21.33;;;;;19.09;100.00;101118.94;5038245;28;45422;-75
2023/07/02 06:24:29;;;;;;;;;23.33;20.33;;;;;19.10;100.00;101123.38;5037455;28;46005;-76
2023/07/02 06:26:54;;;;;;;;;29.67;17.67;;;;;19.18;100.00;101127.69;5035835;28;59520;-75
2023/07/02 06:29:19;;;;;;;;;28.67;20.67;;;;;19.20;100.00;101131.22;5037447;28;62513;-75
2023/07/02 06:31:45;;;;;;;;;25.33;17.33;;;;;19.19;100.00;101135.69;5037549;28;61916;-75
2023/07/02 06:34:10;;;;;;;;;26.00;20.33;;;;;19.20;100.00;101132.09;5038029;28;45271;-76
2023/07/02 06:36:35;;;;;;;;;22.00;19.00;;;;;19.23;100.00;101137.41;5032649;28;45436;-75
2023/07/02 06:39:01;;;;;;;;;26.33;18.00;;;;;19.27;100.00;101138.22;5034543;28;71907;-76
2023/07/02 06:41:26;;;;;;;;;20.33;16.00;;;;;19.31;100.00;101135.44;5037373;28;61482;-76
2023/07/02 06:43:51;;;;;;;;;24.33;19.67;;;;;19.36;100.00;101136.22;5038095;28;45432;-76
2023/07/02 06:46:17;;;;;;;;;21.33;15.00;;;;;19.36;100.00;101143.38;5037343;28;45489;-76
2023/07/02 06:48:42;;;;;;;;;23.67;19.33;;;;;19.36;100.00;101146.94;5037469;28;56713;-75
2023/07/02 06:51:08;;;;;;;;;22.33;21.33;;;;;19.37;100.00;101156.72;5037307;28;67870;-75
2023/07/02 06:53:33;;;;;;;;;32.00;20.00;;;;;19.36;100.00;101146.06;5037795;28;45298;-75
2023/07/02 06:55:59;;;;;;;;;20.33;17.67;;;;;19.40;100.00;101152.25;5037774;28;45463;-76
2023/07/02 06:58:24;;;;;;;;;24.67;19.33;;;;;19.42;100.00;101148.63;5036710;28;46682;-76
2023/07/02 07:00:49;;;;;;;;;23.00;19.00;;;;;19.43;100.00;101154.84;5028480;28;68161;-76
2023/07/02 07:03:16;;;;;;;;;27.33;18.33;;;;;19.43;100.00;101155.72;5037128;28;62043;-76
2023/07/02 07:05:41;;;;;;;;;24.33;20.33;;;;;19.35;100.00;101158.56;5038153;28;45331;-76
2023/07/02 07:08:06;;;;;;;;;24.00;17.67;;;;;19.36;100.00;101154.09;5036979;28;47417;-76
2023/07/02 07:10:34;;;;;;;;;25.00;19.33;;;;;19.35;100.00;101146.97;5036464;28;64923;-75
2023/07/02 07:13:01;;;;;;;;;20.00;18.67;;;;;19.43;100.00;101152.16;5036722;28;45246;-76
2023/07/02 07:15:26;;;;;;;;;25.67;19.67;;;;;19.47;100.00;101151.19;5032486;28;45459;-76
2023/07/02 07:17:52;;;;;;;;;26.00;20.33;;;;;19.57;100.00;101152.78;5034994;28;65860;-75
2023/07/02 07:20:17;;;;;;;;;24.33;14.67;;;;;19.59;100.00;101145.63;5035820;28;45375;-74
2023/07/02 07:22:42;;;;;;;;;30.67;22.00;;;;;19.62;100.00;101141.09;5035049;28;63347;-75
2023/07/02 07:25:08;;;;;;;;;28.00;19.33;;;;;19.75;100.00;101151.53;5031314;28;63596;-74
2023/07/02 07:27:33;;;;;;;;;22.00;21.33;;;;;19.82;100.00;101153.19;5036487;28;47875;-76
2023/07/02 07:29:59;;;;;;;;;30.00;22.00;;;;;19.88;100.00;101155.72;5034950;28;66547;-75
2023/07/02 07:32:24;;;;;;;;;23.67;20.00;;;;;20.02;100.00;101150.91;5035904;28;64900;-75
2023/07/02 07:34:49;;;;;;;;;24.00;16.00;;;;;20.12;100.00;101151.56;5033321;28;59004;-76
2023/07/02 07:37:15;;;;;;;;;26.33;19.67;;;;;20.19;100.00;101155.91;5036442;28;47946;-76
2023/07/02 07:39:40;;;;;;;;;24.33;19.33;;;;;20.25;100.00;101155.75;5035484;28;67874;-76
2023/07/02 07:42:06;;;;;;;;;24.33;19.00;;;;;20.33;100.00;101156.44;5031846;28;63614;-77
2023/07/02 07:44:31;;;;;;;;;24.67;21.00;;;;;20.40;100.00;101158.06;5033803;28;45483;-77
2023/07/02 07:46:56;;;;;;;;;29.67;23.33;;;;;20.45;100.00;101155.25;5032543;28;45757;-76
2023/07/02 07:49:22;;;;;;;;;23.33;18.00;;;;;20.51;100.00;101162.31;5031522;28;67050;-77
2023/07/02 07:51:47;;;;;;;;;25.00;15.33;;;;;20.58;100.00;101155.88;5033036;28;45600;-77
2023/07/02 07:54:13;;;;;;;;;26.67;21.33;;;;;20.69;100.00;101160.97;5030143;28;45666;-76
2023/07/02 07:56:38;;;;;;;;;18.67;14.33;;;;;20.73;100.00;101168.91;5033527;28;46009;-77
2023/07/02 07:59:04;;;;;;;;;24.67;18.67;;;;;20.73;100.00;101163.53;5031802;28;45531;-76
2023/07/02 08:01:29;;;;;;;;;18.00;17.67;;;;;20.79;100.00;101168.75;5025812;28;46738;-77
2023/07/02 08:03:55;;;;;;;;;22.67;17.33;;;;;20.83;100.00;101170.44;5027311;28;45488;-76
2023/07/02 08:06:20;;;;;;;;;27.00;17.00;;;;;20.87;100.00;101168.53;5023745;28;46544;-77
2023/07/02 08:08:45;;;;;;;;;27.67;19.67;;;;;20.88;100.00;101164.94;5027721;28;46847;-78
2023/07/02 08:11:11;;;;;;;;;21.67;17.33;;;;;20.90;100.00;101163.09;5034666;28;45459;-78
2023/07/02 08:13:37;;;;;;;;;29.00;20.00;;;;;20.95;100.00;101160.28;5034406;28;45363;-78
2023/07/02 08:16:02;;;;;;;;;23.67;18.33;;;;;21.01;100.00;101170.88;5034874;28;47495;-82
2023/07/02 08:18:28;;;;;;;;;25.33;17.33;;;;;21.03;100.00;101169.00;5033962;28;45407;-77
2023/07/02 08:20:53;;;;;;;;;24.33;17.33;;;;;21.00;100.00;101158.38;5033968;28;61616;-76
2023/07/02 08:23:18;;;;;;;;;23.67;17.33;;;;;21.01;100.00;101169.06;5031709;28;65442;-78
2023/07/02 08:25:44;;;;;;;;;21.67;16.33;;;;;21.06;100.00;101172.50;5033212;28;46406;-79
2023/07/02 08:28:09;;;;;;;;;22.00;17.33;;;;;21.08;100.00;101167.09;5035346;28;65308;-77
2023/07/02 08:30:35;;;;;;;;;25.67;18.33;;;;;21.11;100.00;101167.88;5030922;28;58207;-74
2023/07/02 08:33:00;;;;;;;;;22.67;16.67;;;;;21.17;100.00;101174.91;5035183;28;56672;-75
2023/07/02 08:35:25;;;;;;;;;22.33;16.00;;;;;21.21;100.00;101173.03;5031423;28;67129;-76
2023/07/02 08:37:51;;;;;;;;;19.33;16.00;;;;;21.25;100.00;101175.56;5028738;28;45446;-76
2023/07/02 08:40:19;;;;;;;;;23.67;18.67;;;;;21.28;100.00;101171.91;5031394;28;45439;-76
2023/07/02 08:42:46;;;;;;;;;24.33;17.33;;;;;21.33;100.00;101181.63;5028320;28;46031;-76
2023/07/02 08:45:12;;;;;;;;;21.33;17.00;;;;;21.42;100.00;101175.13;5034773;28;46724;-77
2023/07/02 08:47:37;;;;;;;;;15.33;14.67;;;;;21.49;100.00;101174.03;5028984;28;46092;-77
2023/07/02 08:50:04;;;;;;;;;19.00;17.33;;;;;21.49;100.00;101181.22;5031726;28;45689;-78
2023/07/02 08:52:30;;;;;;;;;22.67;17.00;;;;;21.48;100.00;101174.09;5033316;28;45526;-77
2023/07/02 08:54:55;;;;;;;;;23.67;15.67;;;;;21.50;100.00;101162.34;5030637;28;49462;-77
2023/07/02 08:57:21;;;;;;;;;21.00;15.00;;;;;21.51;100.00;101163.22;5029267;28;50596;-77
2023/07/02 08:59:47;;;;;;;;;23.67;19.00;;;;;21.49;100.00;101168.66;5033235;28;45438;-77
2023/07/02 09:02:13;;;;;;;;;21.33;17.67;;;;;21.54;100.00;101171.22;5033005;28;45430;-76
2023/07/02 09:04:38;;;;;;;;;16.67;16.67;;;;;21.66;100.00;101158.28;5033502;28;48727;-77
2023/07/02 09:07:05;;;;;;;;;21.33;17.33;;;;;21.82;100.00;101157.81;5031552;28;61911;-76
2023/07/02 09:09:31;;;;;;;;;20.67;15.00;;;;;21.93;100.00;101153.88;5031078;28;45599;-76
2023/07/02 09:11:56;;;;;;;;;20.00;18.00;;;;;21.96;100.00;101143.03;5029981;28;45493;-76
2023/07/02 09:14:29;;;;;;;;;16.33;15.00;;;;;21.99;100.00;101150.13;5029040;28;47106;-76
2023/07/02 09:17:21;;;;;;;;;17.33;15.67;;;;;21.96;100.00;101156.47;5031585;28;45554;-77
2023/07/02 09:19:51;;;;;;;;;17.67;14.33;;;;;21.90;100.00;101153.13;5031492;28;45621;-79
2023/07/02 09:22:16;;;;;;;;;16.67;14.00;;;;;21.81;100.00;101145.31;5034170;28;45613;-78
2023/07/02 09:24:51;;;;;;;;;19.33;15.67;;;;;21.71;100.00;101150.09;5033268;28;45661;-77
2023/07/02 09:27:16;;;;;;;;;20.67;15.33;;;;;21.62;100.00;101144.97;5028538;28;45560;-78
2023/07/02 09:29:41;;;;;;;;;16.00;13.00;;;;;21.59;100.00;101143.28;5031970;28;46828;-78
2023/07/02 09:32:07;;;;;;;;;13.00;9.33;;;;;21.64;100.00;101146.72;5027587;28;47231;-77
2023/07/02 09:34:34;;;;;;;;;18.67;15.00;;;;;21.78;100.00;101154.34;5029425;28;48705;-76
2023/07/02 09:37:01;;;;;;;;;17.33;14.67;;;;;21.86;100.00;101152.31;5025101;28;45712;-78
2023/07/02 09:39:31;;;;;;;;;19.00;13.67;;;;;21.96;100.00;101156.47;5029986;28;45482;-77
2023/07/02 09:41:58;;;;;;;;;16.00;13.67;;;;;22.08;100.00;101147.16;5036339;28;45705;-78
2023/07/02 09:44:31;;;;;;;;;18.00;16.00;;;;;22.11;100.00;101151.59;5034726;28;46283;-77
2023/07/02 09:47:03;;;;;;;;;18.67;14.00;;;;;22.04;100.00;101147.28;5036784;28;45616;-77
2023/07/02 09:49:53;;;;;;;;;16.00;15.00;;;;;21.90;100.00;101156.69;5034599;28;45400;-77
2023/07/02 09:52:19;;;;;;;;;20.33;14.67;;;;;21.88;100.00;101150.44;5030529;28;45742;-77
2023/07/02 09:54:45;;;;;;;;;19.00;14.00;;;;;22.02;100.00;101146.47;5036692;28;47260;-76
2023/07/02 09:57:10;;;;;;;;;22.33;14.00;;;;;22.20;100.00;101153.97;5033326;28;45480;-76
2023/07/02 09:59:36;;;;;;;;;16.67;14.00;;;;;22.27;100.00;101150.19;5034467;28;45431;-78
2023/07/02 10:02:01;;;;;;;;;19.33;14.67;;;;;22.22;100.00;101153.00;5033594;28;45557;-77
2023/07/02 10:04:27;;;;;;;;;17.33;12.67;;;;;22.18;100.00;101150.47;5032471;28;46990;-78
2023/07/02 10:06:57;;;;;;;;;11.67;11.67;;;;;22.10;100.00;101149.78;5036058;28;45438;-77
2023/07/02 10:09:43;;;;;;;;;15.00;11.33;;;;;22.02;100.00;101157.22;5030458;28;45408;-77
2023/07/02 10:12:18;;;;;;;;;17.67;15.00;;;;;21.95;100.00;101154.72;5032341;28;45304;-78
2023/07/02 10:14:45;;;;;;;;;15.67;13.00;;;;;21.90;100.00;101147.75;5027391;28;47480;-77
2023/07/02 10:17:10;;;;;;;;;14.00;12.67;;;;;21.89;100.00;101157.63;5028091;28;45542;-77
2023/07/02 10:19:36;;;;;;;;;18.67;15.00;;;;;21.87;100.00;101153.19;5033458;28;45906;-78
2023/07/02 10:22:03;;;;;;;;;17.67;14.67;;;;;21.86;100.00;101152.31;5029063;28;56257;-77
2023/07/02 10:24:28;;;;;;;;;20.67;16.33;;;;;21.88;100.00;101149.56;5031415;28;47633;-77
2023/07/02 10:26:56;;;;;;;;;20.33;17.00;;;;;21.81;100.00;101143.50;5035755;28;45489;-77
2023/07/02 10:29:23;;;;;;;;;17.00;13.00;;;;;21.95;100.00;101152.03;5032018;28;46394;-77
2023/07/02 10:31:53;;;;;;;;;18.00;15.33;;;;;22.14;100.00;101144.28;5032252;28;45465;-76
2023/07/02 10:34:32;;;;;;;;;24.33;17.67;;;;;22.28;100.00;101151.94;5029069;28;47587;-77
2023/07/02 10:36:58;;;;;;;;;15.67;15.67;;;;;22.34;100.00;101142.78;5029123;28;46826;-77
2023/07/02 10:39:23;;;;;;;;;19.67;17.33;;;;;22.37;99.72;101139.97;5032765;28;45477;-76
2023/07/02 10:41:49;;;;;;;;;22.00;21.00;;;;;22.39;100.00;101146.19;5033157;28;45521;-76
2023/07/02 10:44:15;;;;;;;;;33.67;31.33;;;;;22.42;100.00;101144.25;5030114;28;46407;-78
2023/07/02 10:46:44;;;;;;;;;21.00;18.67;;;;;22.49;100.00;101143.16;5027648;28;45545;-78
2023/07/02 10:49:11;;;;;;;;;33.00;26.33;;;;;22.52;100.00;101141.28;5031764;28;45497;-77
2023/07/02 10:51:37;;;;;;;;;39.00;30.00;;;;;22.50;100.00;101125.19;5028515;28;45800;-77
2023/07/02 10:54:04;;;;;;;;;23.33;19.67;;;;;22.52;100.00;101114.38;5030191;28;46222;-78
2023/07/02 10:56:30;;;;;;;;;38.33;26.67;;;;;22.62;99.14;101126.56;5028381;28;46902;-76